Main page
METAR-TAF:

METAR-TAF

Airports :

Cranfield Airport

Cranfield, England

latitude: 52-04N, longitude: 000-37W, elevation: 111 m

Current weather observation

The report was made 9 hours and 7 minutes ago, at 17:20 UTC
Wind 7 kt from the South, varying between Southeast and South/Southwest
Temperature 7°C
Humidity 93%
Pressure 995 hPa
Visibility 10 km or more
Few clouds at a height of 2000 ft
Scattered clouds at a height of 2600 ft
Broken clouds at a height of 4000 ft

METAR: EGTC 251720Z 18007KT 130V200 9999 FEW020 SCT026 BKN040 07/06 Q0995

Time: 02:27 (02:27 UTC)

Forecast

The report was made 12 hours and 31 minutes ago, at 13:56 UTC
Forecast valid from 25 at 15 UTC to 25 at 18 UTC
Wind 14 kt from the Southwest
Visibility 10 km or more
Few clouds at a height of 2200 ft
Probability 40% :
Temporary
from 25 at 15 UTC to 25 at 18 UTC
Visibility: 8000 m
rain showers

TAF: EGTC 251356Z 2515/2518 22014KT 9999 FEW022 PROB40 TEMPO 2515/2518 8000 SHRA

Weather observations and forecasts of more than 4000 airports (METAR and TAF reports).

The available stations are represented by yellow and red dots on the map.

Hover mouse over dot to see the name of the station.

Then click to see weather observations and forecasts.

To change the map : click on the green buttons with a black cross to zoom in, on the green button with a dash to zoom out, or on the green arrows for adjacent maps.


METAR-TAF: